Terminal Aerodrome Forecast
Issued by NWS

Home | Current Version | Previous Version | Graphics & Text | Print | Product List | Glossary On
Versions: 1 2 3 4 5 6 7 8 9 10 11 12 13 14 15 16 17 18 19
000
FTUS43 KFGF 071730
TAFBJI
TAF
KBJI 071730Z 0718/0818 28019G27KT 2SM -SN OVC015
      TEMPO 0720/0723 4SM -SN
     FM080100 30016KT P6SM -SN OVC012
     FM080600 31013KT P6SM OVC008
     FM081300 31013KT P6SM OVC015=

USA.gov is the U.S. government's official web portal to all federal, state and local government web resources and services.